KFSE

Fosston Municipal Airport

Fosston, Minnesota, USA
METAR KFSE 172215Z AUTO 00000KT 7SM CLR 27/17 A3010 RMK AO2
Observed Flight Rules
Aug-17 @ 22:15 UTC (22 minutes ago) Visual Flight Rules
Visibility Clouds
7 miles
  • Clear skies
Temperatures Readings
Current 27°C / 81°F
Dewpoint 17°C / 63°F
Humidity 54%
Altimeter 30.1" Hg
Pressure 1019 hPa
Elevation 389
METAR KFSE 172215Z AUTO 00000KT 7SM CLR 27/17 A3010 RMK AO2
Observed Flight Rules
Aug-17 @ 22:15 UTC
(22 minutes ago)
VFR
Clouds
  • Clear skies
Temperature Dewpoint
27°C / 81°F 17°C / 63°F
Humidity Altimeter Pressure
54% 30.1" Hg 1019 hPa